sensor_id;sensor_type;location;lat;lon;timestamp;pressure;altitude;pressure_sealevel;temperature;humidity
31595;BME280;18200;48.726;8.892;2023-09-30T00:00:32;97605.19;;;29.67;34.40
31595;BME280;18200;48.726;8.892;2023-09-30T00:04:33;97606.75;;;29.86;34.47
31595;BME280;18200;48.726;8.892;2023-09-30T00:08:34;97599.34;;;29.65;34.59
31595;BME280;18200;48.726;8.892;2023-09-30T00:12:34;97600.88;;;29.57;34.74
31595;BME280;18200;48.726;8.892;2023-09-30T00:16:34;97597.50;;;29.71;35.03
31595;BME280;18200;48.726;8.892;2023-09-30T00:20:35;97587.84;;;30.03;34.42
31595;BME280;18200;48.726;8.892;2023-09-30T00:24:35;97586.88;;;29.69;34.96
31595;BME280;18200;48.726;8.892;2023-09-30T00:28:36;97583.06;;;29.85;34.50
31595;BME280;18200;48.726;8.892;2023-09-30T00:32:36;97594.28;;;29.81;34.70
31595;BME280;18200;48.726;8.892;2023-09-30T00:36:37;97599.97;;;30.05;34.26
31595;BME280;18200;48.726;8.892;2023-09-30T00:40:37;97603.81;;;30.17;34.33
31595;BME280;18200;48.726;8.892;2023-09-30T00:44:37;97596.88;;;30.12;34.32
31595;BME280;18200;48.726;8.892;2023-09-30T00:48:38;97607.03;;;29.61;35.39
31595;BME280;18200;48.726;8.892;2023-09-30T00:52:39;97599.66;;;29.67;34.65
31595;BME280;18200;48.726;8.892;2023-09-30T00:56:44;97600.31;;;29.80;35.16
31595;BME280;18200;48.726;8.892;2023-09-30T01:00:48;97598.44;;;29.95;34.50
31595;BME280;18200;48.726;8.892;2023-09-30T01:04:49;97610.59;;;29.79;34.64
31595;BME280;18200;48.726;8.892;2023-09-30T01:08:50;97601.22;;;29.86;34.76
31595;BME280;18200;48.726;8.892;2023-09-30T01:12:50;97601.19;;;29.41;35.67
31595;BME280;18200;48.726;8.892;2023-09-30T01:16:51;97598.09;;;29.30;36.12
31595;BME280;18200;48.726;8.892;2023-09-30T01:20:52;97587.91;;;29.27;36.08
31595;BME280;18200;48.726;8.892;2023-09-30T01:24:53;97586.06;;;29.33;35.99
31595;BME280;18200;48.726;8.892;2023-09-30T01:28:53;97604.53;;;29.27;36.20
31595;BME280;18200;48.726;8.892;2023-09-30T01:32:54;97596.47;;;29.10;35.71
31595;BME280;18200;48.726;8.892;2023-09-30T01:36:57;97601.00;;;28.25;37.91
31595;BME280;18200;48.726;8.892;2023-09-30T01:40:57;97592.78;;;27.56;39.87
31595;BME280;18200;48.726;8.892;2023-09-30T01:44:57;97612.81;;;28.78;37.48
31595;BME280;18200;48.726;8.892;2023-09-30T01:48:58;97596.88;;;29.40;36.25
31595;BME280;18200;48.726;8.892;2023-09-30T01:52:58;97600.88;;;28.99;37.08
31595;BME280;18200;48.726;8.892;2023-09-30T01:56:58;97601.81;;;29.72;35.49
31595;BME280;18200;48.726;8.892;2023-09-30T02:01:03;97599.03;;;29.63;36.18
31595;BME280;18200;48.726;8.892;2023-09-30T02:05:04;97598.88;;;29.48;36.07
31595;BME280;18200;48.726;8.892;2023-09-30T02:09:05;97602.97;;;28.77;37.31
31595;BME280;18200;48.726;8.892;2023-09-30T02:13:08;97597.97;;;29.51;35.85
31595;BME280;18200;48.726;8.892;2023-09-30T02:17:08;97602.69;;;29.33;35.79
31595;BME280;18200;48.726;8.892;2023-09-30T02:21:09;97605.09;;;29.12;35.54
31595;BME280;18200;48.726;8.892;2023-09-30T02:25:10;97604.44;;;28.99;36.48
31595;BME280;18200;48.726;8.892;2023-09-30T02:29:11;97605.66;;;28.98;36.61
31595;BME280;18200;48.726;8.892;2023-09-30T02:33:12;97613.00;;;28.92;36.25
31595;BME280;18200;48.726;8.892;2023-09-30T02:37:12;97614.41;;;29.37;35.60
31595;BME280;18200;48.726;8.892;2023-09-30T02:41:12;97625.69;;;29.11;35.92
31595;BME280;18200;48.726;8.892;2023-09-30T02:45:14;97624.69;;;27.92;38.20
31595;BME280;18200;48.726;8.892;2023-09-30T02:49:14;97615.09;;;28.79;36.54
31595;BME280;18200;48.726;8.892;2023-09-30T02:53:15;97618.47;;;28.74;36.71
31595;BME280;18200;48.726;8.892;2023-09-30T02:57:15;97629.91;;;28.11;37.70
31595;BME280;18200;48.726;8.892;2023-09-30T03:01:17;97626.47;;;28.51;36.51
31595;BME280;18200;48.726;8.892;2023-09-30T03:05:17;97634.16;;;28.77;35.61
31595;BME280;18200;48.726;8.892;2023-09-30T03:09:18;97633.97;;;29.02;35.90
31595;BME280;18200;48.726;8.892;2023-09-30T03:13:18;97639.94;;;29.32;35.97
31595;BME280;18200;48.726;8.892;2023-09-30T03:17:21;97638.75;;;28.50;37.14
31595;BME280;18200;48.726;8.892;2023-09-30T03:21:22;97637.25;;;28.79;37.44
31595;BME280;18200;48.726;8.892;2023-09-30T03:25:22;97632.22;;;29.18;35.83
31595;BME280;18200;48.726;8.892;2023-09-30T03:29:23;97653.78;;;29.01;35.52
31595;BME280;18200;48.726;8.892;2023-09-30T03:33:23;97644.81;;;28.88;36.87
31595;BME280;18200;48.726;8.892;2023-09-30T03:37:24;97636.56;;;28.97;36.35
31595;BME280;18200;48.726;8.892;2023-09-30T03:41:26;97629.09;;;29.15;36.24
31595;BME280;18200;48.726;8.892;2023-09-30T03:45:28;97624.03;;;28.74;36.71
31595;BME280;18200;48.726;8.892;2023-09-30T03:49:29;97610.09;;;29.36;35.95
31595;BME280;18200;48.726;8.892;2023-09-30T03:53:29;97615.66;;;29.05;35.09
31595;BME280;18200;48.726;8.892;2023-09-30T03:57:33;97611.69;;;29.06;35.86
31595;BME280;18200;48.726;8.892;2023-09-30T04:01:36;97618.47;;;28.74;36.65
31595;BME280;18200;48.726;8.892;2023-09-30T04:05:40;97631.44;;;28.86;35.96
31595;BME280;18200;48.726;8.892;2023-09-30T04:09:40;97629.19;;;29.03;36.90
31595;BME280;18200;48.726;8.892;2023-09-30T04:13:40;97640.16;;;28.54;37.41
31595;BME280;18200;48.726;8.892;2023-09-30T04:17:41;97634.59;;;29.06;36.69
31595;BME280;18200;48.726;8.892;2023-09-30T04:21:42;97628.00;;;29.13;35.78
31595;BME280;18200;48.726;8.892;2023-09-30T04:25:43;97622.81;;;29.24;36.10
31595;BME280;18200;48.726;8.892;2023-09-30T04:29:43;97618.09;;;29.43;35.53
31595;BME280;18200;48.726;8.892;2023-09-30T04:33:43;97625.78;;;29.30;35.50
31595;BME280;18200;48.726;8.892;2023-09-30T04:37:44;97637.22;;;29.10;36.33
31595;BME280;18200;48.726;8.892;2023-09-30T04:41:45;97639.75;;;29.26;35.99
31595;BME280;18200;48.726;8.892;2023-09-30T04:45:47;97640.53;;;29.36;35.33
31595;BME280;18200;48.726;8.892;2023-09-30T04:49:49;97642.09;;;29.37;36.04
31595;BME280;18200;48.726;8.892;2023-09-30T04:53:51;97642.06;;;29.28;35.95
31595;BME280;18200;48.726;8.892;2023-09-30T04:57:52;97650.28;;;29.09;36.19
31595;BME280;18200;48.726;8.892;2023-09-30T05:01:52;97652.72;;;29.07;37.18
31595;BME280;18200;48.726;8.892;2023-09-30T05:05:53;97671.28;;;29.20;35.98
31595;BME280;18200;48.726;8.892;2023-09-30T05:09:55;97687.81;;;29.10;36.36
31595;BME280;18200;48.726;8.892;2023-09-30T05:13:56;97675.59;;;28.90;36.91
31595;BME280;18200;48.726;8.892;2023-09-30T05:17:56;97675.88;;;29.23;36.03
31595;BME280;18200;48.726;8.892;2023-09-30T05:21:56;97678.31;;;28.81;36.32
31595;BME280;18200;48.726;8.892;2023-09-30T05:25:57;97674.72;;;27.59;38.44
31595;BME280;18200;48.726;8.892;2023-09-30T05:29:57;97660.03;;;27.97;37.95
31595;BME280;18200;48.726;8.892;2023-09-30T05:33:58;97658.25;;;28.03;37.54
31595;BME280;18200;48.726;8.892;2023-09-30T05:37:58;97651.63;;;27.88;38.12
31595;BME280;18200;48.726;8.892;2023-09-30T05:41:58;97657.06;;;27.91;38.29
31595;BME280;18200;48.726;8.892;2023-09-30T05:45:59;97664.09;;;28.26;36.70
31595;BME280;18200;48.726;8.892;2023-09-30T05:49:59;97650.19;;;27.96;37.82
31595;BME280;18200;48.726;8.892;2023-09-30T05:54:00;97682.09;;;28.31;37.26
31595;BME280;18200;48.726;8.892;2023-09-30T05:58:00;97675.34;;;28.10;37.35
31595;BME280;18200;48.726;8.892;2023-09-30T06:02:01;97671.69;;;27.66;38.28
31595;BME280;18200;48.726;8.892;2023-09-30T06:06:03;97679.09;;;27.70;38.11
31595;BME280;18200;48.726;8.892;2023-09-30T06:10:03;97682.13;;;27.97;37.41
31595;BME280;18200;48.726;8.892;2023-09-30T06:14:04;97689.81;;;28.79;36.75
31595;BME280;18200;48.726;8.892;2023-09-30T06:18:06;97706.94;;;29.18;35.88
31595;BME280;18200;48.726;8.892;2023-09-30T06:22:07;97707.28;;;29.29;35.84
31595;BME280;18200;48.726;8.892;2023-09-30T06:26:07;97711.97;;;29.50;35.53
31595;BME280;18200;48.726;8.892;2023-09-30T06:30:08;97701.13;;;29.73;34.71
31595;BME280;18200;48.726;8.892;2023-09-30T06:34:09;97704.50;;;29.29;35.06
31595;BME280;18200;48.726;8.892;2023-09-30T06:38:11;97719.91;;;29.30;35.25
31595;BME280;18200;48.726;8.892;2023-09-30T06:42:11;97720.69;;;28.56;37.25
31595;BME280;18200;48.726;8.892;2023-09-30T06:46:12;97734.84;;;28.80;36.61
31595;BME280;18200;48.726;8.892;2023-09-30T06:50:13;97737.41;;;29.18;36.22
31595;BME280;18200;48.726;8.892;2023-09-30T06:54:17;97748.63;;;29.63;35.36
31595;BME280;18200;48.726;8.892;2023-09-30T06:58:17;97751.91;;;29.79;35.47
31595;BME280;18200;48.726;8.892;2023-09-30T07:02:21;97740.09;;;29.97;34.93
31595;BME280;18200;48.726;8.892;2023-09-30T07:06:23;97723.66;;;29.54;35.49
31595;BME280;18200;48.726;8.892;2023-09-30T07:10:24;97729.59;;;29.74;35.22
31595;BME280;18200;48.726;8.892;2023-09-30T07:14:24;97725.13;;;29.28;36.36
31595;BME280;18200;48.726;8.892;2023-09-30T07:18:25;97728.00;;;29.24;36.09
31595;BME280;18200;48.726;8.892;2023-09-30T07:22:25;97742.25;;;29.93;35.80
31595;BME280;18200;48.726;8.892;2023-09-30T07:26:26;97742.25;;;29.93;35.42
31595;BME280;18200;48.726;8.892;2023-09-30T07:30:28;97764.81;;;30.40;34.88
31595;BME280;18200;48.726;8.892;2023-09-30T07:34:28;97770.66;;;30.33;34.43
31595;BME280;18200;48.726;8.892;2023-09-30T07:38:28;97767.78;;;29.88;35.17
31595;BME280;18200;48.726;8.892;2023-09-30T07:42:29;97758.34;;;30.34;34.19
31595;BME280;18200;48.726;8.892;2023-09-30T07:46:30;97757.38;;;30.10;34.91
31595;BME280;18200;48.726;8.892;2023-09-30T07:50:31;97753.97;;;30.24;35.43
31595;BME280;18200;48.726;8.892;2023-09-30T07:54:32;97767.84;;;31.06;33.47
31595;BME280;18200;48.726;8.892;2023-09-30T07:58:32;97777.13;;;31.03;33.58
31595;BME280;18200;48.726;8.892;2023-09-30T08:02:33;97771.75;;;30.36;34.43
31595;BME280;18200;48.726;8.892;2023-09-30T08:06:33;97769.72;;;30.54;34.90
31595;BME280;18200;48.726;8.892;2023-09-30T08:10:34;97759.84;;;30.17;34.66
31595;BME280;18200;48.726;8.892;2023-09-30T08:14:36;97763.69;;;30.02;34.68
31595;BME280;18200;48.726;8.892;2023-09-30T08:18:36;97767.25;;;30.84;33.44
31595;BME280;18200;48.726;8.892;2023-09-30T08:22:37;97768.38;;;32.02;31.46
31595;BME280;18200;48.726;8.892;2023-09-30T08:26:37;97770.97;;;31.50;32.74
31595;BME280;18200;48.726;8.892;2023-09-30T08:30:38;97771.69;;;31.59;32.51
31595;BME280;18200;48.726;8.892;2023-09-30T08:34:38;97777.19;;;31.26;32.76
31595;BME280;18200;48.726;8.892;2023-09-30T08:38:40;97776.19;;;30.97;32.66
31595;BME280;18200;48.726;8.892;2023-09-30T08:42:40;97752.78;;;31.72;31.73
31595;BME280;18200;48.726;8.892;2023-09-30T08:46:41;97756.19;;;31.34;32.69
31595;BME280;18200;48.726;8.892;2023-09-30T08:50:42;97776.44;;;31.17;32.48
31595;BME280;18200;48.726;8.892;2023-09-30T08:54:43;97755.72;;;31.92;31.74
31595;BME280;18200;48.726;8.892;2023-09-30T08:58:43;97745.56;;;32.37;31.55
31595;BME280;18200;48.726;8.892;2023-09-30T09:02:44;97741.66;;;33.11;30.12
31595;BME280;18200;48.726;8.892;2023-09-30T09:06:44;97754.78;;;32.43;30.63
31595;BME280;18200;48.726;8.892;2023-09-30T09:10:59;97763.09;;;32.52;30.19
31595;BME280;18200;48.726;8.892;2023-09-30T09:15:01;97757.63;;;32.34;30.42
31595;BME280;18200;48.726;8.892;2023-09-30T09:19:13;97772.38;;;33.16;29.15
31595;BME280;18200;48.726;8.892;2023-09-30T09:23:15;97769.97;;;33.88;28.56
31595;BME280;18200;48.726;8.892;2023-09-30T09:27:15;97767.41;;;34.45;27.49
31595;BME280;18200;48.726;8.892;2023-09-30T09:31:21;97766.88;;;33.36;28.33
31595;BME280;18200;48.726;8.892;2023-09-30T09:35:22;97764.69;;;34.10;27.29
31595;BME280;18200;48.726;8.892;2023-09-30T09:39:29;97755.97;;;34.88;26.81
31595;BME280;18200;48.726;8.892;2023-09-30T09:43:33;97747.91;;;34.70;26.71
31595;BME280;18200;48.726;8.892;2023-09-30T09:47:35;97742.47;;;34.61;27.68
31595;BME280;18200;48.726;8.892;2023-09-30T09:51:36;97738.22;;;33.85;27.79
31595;BME280;18200;48.726;8.892;2023-09-30T09:55:37;97745.50;;;34.37;26.53
31595;BME280;18200;48.726;8.892;2023-09-30T09:59:39;97739.50;;;33.20;28.64
31595;BME280;18200;48.726;8.892;2023-09-30T10:03:39;97739.66;;;34.56;26.86
31595;BME280;18200;48.726;8.892;2023-09-30T10:07:46;97748.25;;;35.03;25.49
31595;BME280;18200;48.726;8.892;2023-09-30T10:11:47;97739.59;;;34.30;26.64
31595;BME280;18200;48.726;8.892;2023-09-30T10:15:48;97730.97;;;35.31;26.37
31595;BME280;18200;48.726;8.892;2023-09-30T10:20:15;97730.50;;;34.35;27.45
31595;BME280;18200;48.726;8.892;2023-09-30T10:28:33;97725.41;;;33.24;28.33
31595;BME280;18200;48.726;8.892;2023-09-30T10:36:57;97718.28;;;34.78;25.10
31595;BME280;18200;48.726;8.892;2023-09-30T10:40:58;97725.97;;;35.82;23.23
31595;BME280;18200;48.726;8.892;2023-09-30T10:44:58;97716.09;;;34.62;24.52
31595;BME280;18200;48.726;8.892;2023-09-30T10:49:14;97715.28;;;34.56;24.67
31595;BME280;18200;48.726;8.892;2023-09-30T10:53:18;97710.94;;;35.06;23.47
31595;BME280;18200;48.726;8.892;2023-09-30T10:57:28;97712.00;;;35.88;23.62
31595;BME280;18200;48.726;8.892;2023-09-30T11:01:33;97701.41;;;37.45;21.21
31595;BME280;18200;48.726;8.892;2023-09-30T11:05:36;97697.53;;;36.59;22.31
31595;BME280;18200;48.726;8.892;2023-09-30T11:09:37;97689.97;;;36.99;21.47
31595;BME280;18200;48.726;8.892;2023-09-30T11:13:37;97691.16;;;36.70;21.87
31595;BME280;18200;48.726;8.892;2023-09-30T11:17:39;97686.72;;;34.98;23.95
31595;BME280;18200;48.726;8.892;2023-09-30T11:21:40;97686.06;;;35.45;22.62
31595;BME280;18200;48.726;8.892;2023-09-30T11:25:41;97686.00;;;36.41;21.71
31595;BME280;18200;48.726;8.892;2023-09-30T11:29:49;97683.53;;;36.87;22.05
31595;BME280;18200;48.726;8.892;2023-09-30T11:33:51;97687.78;;;35.74;21.73
31595;BME280;18200;48.726;8.892;2023-09-30T11:37:52;97683.28;;;36.74;21.46
31595;BME280;18200;48.726;8.892;2023-09-30T11:41:53;97683.41;;;35.62;23.25
31595;BME280;18200;48.726;8.892;2023-09-30T11:46:06;97689.91;;;33.94;25.16
31595;BME280;18200;48.726;8.892;2023-09-30T11:50:08;97674.84;;;35.82;23.24
31595;BME280;18200;48.726;8.892;2023-09-30T11:54:09;97675.59;;;35.03;24.66
31595;BME280;18200;48.726;8.892;2023-09-30T11:58:11;97674.53;;;35.27;24.29
31595;BME280;18200;48.726;8.892;2023-09-30T12:02:15;97674.25;;;34.42;24.92
31595;BME280;18200;48.726;8.892;2023-09-30T12:06:17;97692.44;;;34.12;25.34
31595;BME280;18200;48.726;8.892;2023-09-30T12:10:18;97687.06;;;34.28;25.15
31595;BME280;18200;48.726;8.892;2023-09-30T12:14:19;97685.44;;;33.61;26.58
31595;BME280;18200;48.726;8.892;2023-09-30T12:18:23;97692.97;;;34.36;25.42
31595;BME280;18200;48.726;8.892;2023-09-30T12:22:24;97683.03;;;34.55;25.53
31595;BME280;18200;48.726;8.892;2023-09-30T12:26:24;97676.91;;;35.87;24.09
31595;BME280;18200;48.726;8.892;2023-09-30T12:30:26;97687.69;;;36.05;22.52
31595;BME280;18200;48.726;8.892;2023-09-30T12:34:27;97684.03;;;35.88;23.57
31595;BME280;18200;48.726;8.892;2023-09-30T12:38:27;97682.88;;;34.95;24.24
31595;BME280;18200;48.726;8.892;2023-09-30T12:42:28;97679.91;;;35.78;23.46
31595;BME280;18200;48.726;8.892;2023-09-30T12:46:30;97679.47;;;38.29;20.77
31595;BME280;18200;48.726;8.892;2023-09-30T12:50:34;97675.78;;;35.68;22.54
31595;BME280;18200;48.726;8.892;2023-09-30T12:54:34;97671.72;;;36.33;21.43
31595;BME280;18200;48.726;8.892;2023-09-30T12:58:34;97669.28;;;36.74;20.68
31595;BME280;18200;48.726;8.892;2023-09-30T13:02:35;97661.09;;;37.31;20.58
31595;BME280;18200;48.726;8.892;2023-09-30T13:06:36;97668.81;;;37.03;20.55
31595;BME280;18200;48.726;8.892;2023-09-30T13:10:37;97660.34;;;36.59;21.89
31595;BME280;18200;48.726;8.892;2023-09-30T13:14:38;97664.56;;;32.20;27.66
31595;BME280;18200;48.726;8.892;2023-09-30T13:18:39;97648.84;;;33.19;26.28
31595;BME280;18200;48.726;8.892;2023-09-30T13:22:39;97638.28;;;32.06;27.48
31595;BME280;18200;48.726;8.892;2023-09-30T13:26:39;97644.16;;;32.23;27.30
31595;BME280;18200;48.726;8.892;2023-09-30T13:30:40;97634.66;;;32.30;27.36
31595;BME280;18200;48.726;8.892;2023-09-30T13:34:40;97632.25;;;34.51;24.34
31595;BME280;18200;48.726;8.892;2023-09-30T13:38:41;97638.19;;;34.13;25.00
31595;BME280;18200;48.726;8.892;2023-09-30T13:42:41;97633.50;;;36.03;22.98
31595;BME280;18200;48.726;8.892;2023-09-30T13:46:42;97640.69;;;35.25;22.76
31595;BME280;18200;48.726;8.892;2023-09-30T13:50:42;97643.72;;;34.59;24.42
31595;BME280;18200;48.726;8.892;2023-09-30T13:54:43;97641.63;;;34.79;23.54
31595;BME280;18200;48.726;8.892;2023-09-30T13:58:43;97642.56;;;34.45;24.29
31595;BME280;18200;48.726;8.892;2023-09-30T14:02:44;97639.09;;;32.51;27.44
31595;BME280;18200;48.726;8.892;2023-09-30T14:06:44;97636.75;;;33.42;26.62
31595;BME280;18200;48.726;8.892;2023-09-30T14:10:45;97621.47;;;34.44;25.20
31595;BME280;18200;48.726;8.892;2023-09-30T14:14:45;97634.66;;;32.73;26.60
31595;BME280;18200;48.726;8.892;2023-09-30T14:18:45;97637.34;;;34.07;25.17
31595;BME280;18200;48.726;8.892;2023-09-30T14:22:46;97630.06;;;34.97;24.27
31595;BME280;18200;48.726;8.892;2023-09-30T14:26:46;97620.28;;;33.79;25.97
31595;BME280;18200;48.726;8.892;2023-09-30T14:30:46;97631.41;;;33.59;25.86
31595;BME280;18200;48.726;8.892;2023-09-30T14:34:47;97626.94;;;35.16;24.08
31595;BME280;18200;48.726;8.892;2023-09-30T14:38:47;97614.59;;;34.65;24.66
31595;BME280;18200;48.726;8.892;2023-09-30T14:42:49;97599.34;;;35.40;23.63
31595;BME280;18200;48.726;8.892;2023-09-30T14:46:49;97609.41;;;34.27;24.90
31595;BME280;18200;48.726;8.892;2023-09-30T14:50:51;97622.63;;;34.52;24.74
31595;BME280;18200;48.726;8.892;2023-09-30T14:54:51;97614.25;;;34.83;24.31
31595;BME280;18200;48.726;8.892;2023-09-30T14:58:51;97613.13;;;35.01;24.28
31595;BME280;18200;48.726;8.892;2023-09-30T15:02:52;97614.91;;;33.55;26.17
31595;BME280;18200;48.726;8.892;2023-09-30T15:06:54;97612.09;;;33.76;25.37
31595;BME280;18200;48.726;8.892;2023-09-30T15:10:55;97613.09;;;33.52;26.21
31595;BME280;18200;48.726;8.892;2023-09-30T15:14:55;97616.25;;;33.25;26.32
31595;BME280;18200;48.726;8.892;2023-09-30T15:18:56;97616.91;;;33.35;25.69
31595;BME280;18200;48.726;8.892;2023-09-30T15:22:56;97620.72;;;33.52;25.63
31595;BME280;18200;48.726;8.892;2023-09-30T15:26:56;97618.22;;;34.00;25.20
31595;BME280;18200;48.726;8.892;2023-09-30T15:30:57;97617.50;;;33.79;25.42
31595;BME280;18200;48.726;8.892;2023-09-30T15:34:59;97614.41;;;34.74;25.34
31595;BME280;18200;48.726;8.892;2023-09-30T15:38:59;97618.81;;;35.65;23.26
31595;BME280;18200;48.726;8.892;2023-09-30T15:42:59;97612.47;;;36.85;22.25
31595;BME280;18200;48.726;8.892;2023-09-30T15:47:00;97622.16;;;36.50;22.47
31595;BME280;18200;48.726;8.892;2023-09-30T15:51:00;97618.59;;;37.00;22.37
31595;BME280;18200;48.726;8.892;2023-09-30T15:55:01;97627.00;;;36.67;22.24
31595;BME280;18200;48.726;8.892;2023-09-30T15:59:01;97621.72;;;35.88;23.66
31595;BME280;18200;48.726;8.892;2023-09-30T16:03:02;97625.47;;;36.54;22.39
31595;BME280;18200;48.726;8.892;2023-09-30T16:07:02;97624.47;;;35.71;22.95
31595;BME280;18200;48.726;8.892;2023-09-30T16:11:03;97620.13;;;36.45;22.86
31595;BME280;18200;48.726;8.892;2023-09-30T16:15:04;97624.06;;;34.22;24.43
31595;BME280;18200;48.726;8.892;2023-09-30T16:19:05;97622.03;;;33.77;25.58
31595;BME280;18200;48.726;8.892;2023-09-30T16:23:06;97626.03;;;33.76;25.96
31595;BME280;18200;48.726;8.892;2023-09-30T16:27:06;97622.69;;;35.79;23.63
31595;BME280;18200;48.726;8.892;2023-09-30T16:31:06;97632.59;;;35.80;22.75
31595;BME280;18200;48.726;8.892;2023-09-30T16:35:07;97631.88;;;35.79;22.63
31595;BME280;18200;48.726;8.892;2023-09-30T16:39:08;97634.00;;;35.48;23.47
31595;BME280;18200;48.726;8.892;2023-09-30T16:43:08;97633.16;;;35.84;23.15
31595;BME280;18200;48.726;8.892;2023-09-30T16:47:09;97640.19;;;35.63;22.81
31595;BME280;18200;48.726;8.892;2023-09-30T16:51:10;97631.09;;;35.79;23.87
31595;BME280;18200;48.726;8.892;2023-09-30T16:55:11;97638.25;;;35.91;23.96
31595;BME280;18200;48.726;8.892;2023-09-30T16:59:12;97643.41;;;35.98;23.77
31595;BME280;18200;48.726;8.892;2023-09-30T17:03:13;97641.81;;;35.86;23.80
31595;BME280;18200;48.726;8.892;2023-09-30T17:07:14;97641.47;;;35.67;24.10
31595;BME280;18200;48.726;8.892;2023-09-30T17:11:18;97649.19;;;34.73;25.34
31595;BME280;18200;48.726;8.892;2023-09-30T17:15:18;97654.44;;;34.66;25.47
31595;BME280;18200;48.726;8.892;2023-09-30T17:19:19;97656.03;;;34.72;24.54
31595;BME280;18200;48.726;8.892;2023-09-30T17:23:19;97662.53;;;34.38;25.64
31595;BME280;18200;48.726;8.892;2023-09-30T17:27:19;97655.66;;;35.16;25.37
31595;BME280;18200;48.726;8.892;2023-09-30T17:31:20;97651.09;;;35.61;24.27
31595;BME280;18200;48.726;8.892;2023-09-30T17:35:20;97660.38;;;34.73;25.67
31595;BME280;18200;48.726;8.892;2023-09-30T17:39:21;97652.94;;;34.65;25.79
31595;BME280;18200;48.726;8.892;2023-09-30T17:43:21;97662.56;;;33.98;26.92
31595;BME280;18200;48.726;8.892;2023-09-30T17:47:21;97650.78;;;32.84;28.53
31595;BME280;18200;48.726;8.892;2023-09-30T17:51:22;97650.78;;;32.26;28.95
31595;BME280;18200;48.726;8.892;2023-09-30T17:55:22;97648.97;;;32.81;28.10
31595;BME280;18200;48.726;8.892;2023-09-30T17:59:23;97650.78;;;32.84;28.54
31595;BME280;18200;48.726;8.892;2023-09-30T18:03:23;97654.06;;;32.68;29.88
31595;BME280;18200;48.726;8.892;2023-09-30T18:07:23;97656.44;;;32.46;28.90
31595;BME280;18200;48.726;8.892;2023-09-30T18:11:24;97652.19;;;32.06;29.18
31595;BME280;18200;48.726;8.892;2023-09-30T18:15:24;97651.72;;;32.23;29.02
31595;BME280;18200;48.726;8.892;2023-09-30T18:19:24;97662.66;;;31.88;30.08
31595;BME280;18200;48.726;8.892;2023-09-30T18:23:25;97666.72;;;31.78;29.96
31595;BME280;18200;48.726;8.892;2023-09-30T18:27:25;97674.03;;;31.75;29.61
31595;BME280;18200;48.726;8.892;2023-09-30T18:31:26;97684.97;;;30.53;31.46
31595;BME280;18200;48.726;8.892;2023-09-30T18:35:26;97676.75;;;30.86;30.33
31595;BME280;18200;48.726;8.892;2023-09-30T18:39:26;97678.66;;;31.13;30.64
31595;BME280;18200;48.726;8.892;2023-09-30T18:43:27;97679.00;;;31.06;31.01
31595;BME280;18200;48.726;8.892;2023-09-30T18:47:29;97674.72;;;30.96;30.54
31595;BME280;18200;48.726;8.892;2023-09-30T18:51:29;97681.72;;;31.15;30.11
31595;BME280;18200;48.726;8.892;2023-09-30T18:55:30;97677.63;;;30.32;31.44
31595;BME280;18200;48.726;8.892;2023-09-30T18:59:30;97676.69;;;30.17;31.19
31595;BME280;18200;48.726;8.892;2023-09-30T19:03:31;97678.84;;;30.04;31.38
31595;BME280;18200;48.726;8.892;2023-09-30T19:07:31;97681.75;;;30.10;31.91
31595;BME280;18200;48.726;8.892;2023-09-30T19:11:32;97683.75;;;30.18;30.91
31595;BME280;18200;48.726;8.892;2023-09-30T19:15:32;97682.81;;;30.03;31.43
31595;BME280;18200;48.726;8.892;2023-09-30T19:19:32;97690.84;;;29.92;32.08
31595;BME280;18200;48.726;8.892;2023-09-30T19:23:33;97694.94;;;29.21;33.02
31595;BME280;18200;48.726;8.892;2023-09-30T19:27:34;97687.41;;;28.90;34.21
31595;BME280;18200;48.726;8.892;2023-09-30T19:31:34;97686.41;;;29.37;32.50
31595;BME280;18200;48.726;8.892;2023-09-30T19:35:35;97692.41;;;29.44;32.65
31595;BME280;18200;48.726;8.892;2023-09-30T19:39:35;97694.94;;;29.21;32.87
31595;BME280;18200;48.726;8.892;2023-09-30T19:43:35;97708.91;;;29.57;32.05
31595;BME280;18200;48.726;8.892;2023-09-30T19:47:36;97717.22;;;29.57;31.53
31595;BME280;18200;48.726;8.892;2023-09-30T19:51:36;97711.03;;;29.44;31.67
31595;BME280;18200;48.726;8.892;2023-09-30T19:55:37;97710.31;;;28.91;32.16
31595;BME280;18200;48.726;8.892;2023-09-30T19:59:41;97715.13;;;27.28;35.85
31595;BME280;18200;48.726;8.892;2023-09-30T20:03:41;97724.56;;;27.90;34.80
31595;BME280;18200;48.726;8.892;2023-09-30T20:07:43;97718.81;;;28.53;33.62
31595;BME280;18200;48.726;8.892;2023-09-30T20:11:44;97726.31;;;28.65;32.75
31595;BME280;18200;48.726;8.892;2023-09-30T20:15:45;97723.34;;;28.60;32.51
31595;BME280;18200;48.726;8.892;2023-09-30T20:19:45;97719.34;;;28.82;31.13
31595;BME280;18200;48.726;8.892;2023-09-30T20:23:46;97717.94;;;28.34;33.85
31595;BME280;18200;48.726;8.892;2023-09-30T20:27:46;97721.91;;;28.55;33.16
31595;BME280;18200;48.726;8.892;2023-09-30T20:31:47;97717.84;;;27.91;33.36
31595;BME280;18200;48.726;8.892;2023-09-30T20:35:47;97716.91;;;27.22;34.71
31595;BME280;18200;48.726;8.892;2023-09-30T20:39:51;97718.22;;;27.05;35.61
31595;BME280;18200;48.726;8.892;2023-09-30T20:43:51;97711.28;;;27.26;35.27
31595;BME280;18200;48.726;8.892;2023-09-30T20:47:52;97694.44;;;26.70;35.29
31595;BME280;18200;48.726;8.892;2023-09-30T20:51:52;97689.09;;;26.79;35.22
31595;BME280;18200;48.726;8.892;2023-09-30T20:55:53;97688.53;;;27.22;35.12
31595;BME280;18200;48.726;8.892;2023-09-30T20:59:53;97679.81;;;27.48;34.27
31595;BME280;18200;48.726;8.892;2023-09-30T21:03:54;97692.19;;;27.44;34.52
31595;BME280;18200;48.726;8.892;2023-09-30T21:07:54;97690.41;;;27.12;33.79
31595;BME280;18200;48.726;8.892;2023-09-30T21:11:55;97703.44;;;27.24;33.89
31595;BME280;18200;48.726;8.892;2023-09-30T21:15:55;97711.84;;;26.96;34.47
31595;BME280;18200;48.726;8.892;2023-09-30T21:19:56;97711.38;;;26.97;34.05
31595;BME280;18200;48.726;8.892;2023-09-30T21:23:56;97716.91;;;27.10;33.98